BIENTÔT MET'MAP
version 2.0 !

Prévue avant fin octobre,
la nouvelle version sera
plus belle, plus complète
et hébergée sur un serveur
3 fois plus puissant...
et toujours gratuite !


Pas compatible ?
Essayez la version Mobile !

SE CONNECTER : | S'inscrire | Disclaimer | Découvrir Orbifly |
Code OACI :

TAF - LTBS Dalaman - 01 Jun 2020 21:47 UTC - Data Source NOAA   


- Altitude de l'aérodrome : 20 ft
- Code IATA : DLM
- Pas de NOTAMs connus.


LTBS - Dalaman

Dernier METAR connu : 2015/08/11 07:50 LTBS 110750Z 24010KT CAVOK 29/20 Q1009 NOSIG
TAF TAF LTBS
Valide du 01 à 18h jusqu'au 02 à 18h UTC


011640Z 0118/0218 VRB02KT 9999 SCT030 BKN100
TEMPO 0118/0122 -SHRA
BECMG 0207/0209 23012KT
PROB30
TEMPO 0212/0216 -TSRA FEW015CB BKN025
BECMG 0216/0218 35009KT

Source NOAA


MET'MAP, la Météo Aéronautique d'un coup d'oeil ! - Copyright ORBIFLY Décembre 2007

Développement & Programmation : Alexandra Zaïnal
Co-Développement : Marc-Olivier Méhu
Soutien technique & logistique : Manuel Goepfert
Conception & Financement : Baudouin d'Aumeries